Time;durP1;ratioP1;P1;durP2;ratioP2;P2;SDS_P1;SDS_P2;PMS_P1;PMS_P2;Temp;Humidity;BMP_temperature;BMP_pressure;BME280_temperature;BME280_humidity;BME280_pressure;Samples;Min_cycle;Max_cycle;Signal;HPM_P1;HPM_P2
2021/07/12 00:00:26;;;;;;;5.57;4.97;;;;;;;17.98;66.28;97896.19;8416156;28;20234;-63
2021/07/12 00:04:29;;;;;;;6.50;4.90;;;;;;;17.73;67.19;97883.25;8416248;28;20199;-63
2021/07/12 00:08:32;;;;;;;5.63;4.80;;;;;;;17.88;66.96;97884.75;8415504;28;20230;-63
2021/07/12 00:12:35;;;;;;;9.73;6.00;;;;;;;17.94;67.22;97881.66;8415884;28;20300;-63
2021/07/12 00:16:39;;;;;;;31.47;7.00;;;;;;;17.78;68.08;97876.72;8415397;28;20375;-63
2021/07/12 00:20:42;;;;;;;8.67;6.47;;;;;;;17.76;68.69;97878.63;8415263;28;20230;-63
2021/07/12 00:24:45;;;;;;;21.67;7.57;;;;;;;17.52;69.74;97865.56;8414837;28;20199;-63
2021/07/12 00:28:48;;;;;;;42.33;7.40;;;;;;;17.66;69.31;97872.38;8415176;28;20262;-63
2021/07/12 00:32:55;;;;;;;7.23;6.53;;;;;;;17.87;69.02;97880.44;8415105;28;20206;-63
2021/07/12 00:36:58;;;;;;;7.50;6.53;;;;;;;17.91;68.56;97868.78;8415032;28;20475;-63
2021/07/12 00:41:01;;;;;;;10.33;6.20;;;;;;;18.01;68.55;97875.94;8414859;28;20234;-63
2021/07/12 00:45:05;;;;;;;8.27;6.30;;;;;;;18.04;68.02;97862.63;8415032;28;20386;-64
2021/07/12 00:49:09;;;;;;;13.13;6.63;;;;;;;17.87;69.17;97864.72;8415215;28;20233;-63
2021/07/12 00:53:12;;;;;;;9.07;6.67;;;;;;;18.00;68.69;97854.16;8415112;28;20504;-64
2021/07/12 00:57:15;;;;;;;14.87;7.27;;;;;;;18.02;68.79;97856.66;8415270;28;20210;-64
2021/07/12 01:01:18;;;;;;;15.90;7.67;;;;;;;18.05;69.32;97859.88;8414606;28;20234;-64
2021/07/12 01:05:23;;;;;;;25.27;8.93;;;;;;;17.94;69.80;97859.88;8414486;28;20219;-64
2021/07/12 01:09:26;;;;;;;34.10;8.97;;;;;;;17.93;70.30;97847.72;8414672;28;20271;-63
2021/07/12 01:13:35;;;;;;;55.83;9.03;;;;;;;17.94;70.42;97850.22;8414584;28;20198;-63
2021/07/12 01:17:45;;;;;;;172.30;9.97;;;;;;;17.75;69.89;97848.13;8414545;28;20425;-63
2021/07/12 01:22:25;;;;;;;66.03;8.57;;;;;;;17.69;70.66;97848.59;8414284;28;20372;-63
2021/07/12 01:26:57;;;;;;;52.13;7.60;;;;;;;17.78;70.02;97840.03;8414442;28;20230;-65
2021/07/12 01:31:37;;;;;;;17.50;7.23;;;;;;;17.88;69.89;97840.22;8414305;28;20266;-63
2021/07/12 01:35:49;;;;;;;8.87;6.10;;;;;;;17.83;69.54;97828.38;8398466;28;20199;-63
2021/07/12 01:39:56;;;;;;;7.27;4.90;;;;;;;17.79;69.66;97831.22;8420919;28;20245;-63
2021/07/12 01:44:02;;;;;;;8.80;5.53;;;;;;;17.72;69.25;97834.44;8420805;28;20293;-63
2021/07/12 01:48:08;;;;;;;6.03;5.43;;;;;;;17.88;69.53;97821.06;8420539;28;20528;-63
2021/07/12 01:52:21;;;;;;;11.20;5.10;;;;;;;17.69;69.72;97808.50;8420509;28;20505;-63
2021/07/12 01:56:30;;;;;;;14.53;5.03;;;;;;;17.57;70.33;97805.84;8420281;28;20308;-63
2021/07/12 02:00:33;;;;;;;65.53;6.47;;;;;;;17.37;70.96;97803.88;8420255;28;20230;-63
2021/07/12 02:04:36;;;;;;;27.20;6.53;;;;;;;17.48;70.99;97808.31;8420155;28;20490;-63
2021/07/12 02:08:45;;;;;;;43.63;6.40;;;;;;;17.41;71.09;97796.63;8419789;28;20227;-63
2021/07/12 02:12:49;;;;;;;112.57;8.33;;;;;;;17.17;71.74;97787.88;8420011;28;20199;-63
2021/07/12 02:16:53;;;;;;;21.13;7.50;;;;;;;17.26;72.10;97786.34;8419697;28;20199;-63
2021/07/12 02:20:57;;;;;;;46.73;9.13;;;;;;;17.18;71.75;97773.84;8419602;28;20227;-63
2021/07/12 02:25:01;;;;;;;11.73;8.47;;;;;;;17.44;71.29;97770.22;8419447;28;20199;-63
2021/07/12 02:29:09;;;;;;;75.43;8.90;;;;;;;17.13;71.73;97769.91;8418745;28;20242;-63
2021/07/12 02:33:13;;;;;;;66.30;8.53;;;;;;;17.10;71.45;97765.75;8417582;28;20387;-64
2021/07/12 02:37:16;;;;;;;34.67;7.10;;;;;;;17.03;71.88;97753.22;8417287;28;20199;-63
2021/07/12 02:41:20;;;;;;;33.37;7.00;;;;;;;17.00;71.68;97759.50;8417995;28;20234;-64
2021/07/12 02:45:24;;;;;;;32.53;5.60;;;;;;;17.32;70.23;97764.13;8417876;28;20203;-63
2021/07/12 02:49:28;;;;;;;10.33;5.70;;;;;;;17.47;70.06;97764.75;8416893;28;20206;-63
2021/07/12 02:53:33;;;;;;;8.43;5.70;;;;;;;17.54;69.72;97760.72;8417000;28;20462;-63
2021/07/12 02:57:37;;;;;;;6.17;5.57;;;;;;;17.39;69.67;97749.63;8416823;28;20392;-64
2021/07/12 03:01:40;;;;;;;7.50;5.30;;;;;;;17.44;69.49;97755.38;8416936;28;20227;-63
2021/07/12 03:05:43;;;;;;;7.97;5.30;;;;;;;17.48;69.46;97762.03;8416556;28;20219;-63
2021/07/12 03:09:47;;;;;;;18.57;5.70;;;;;;;17.36;69.20;97771.66;8416720;28;20210;-63
2021/07/12 03:13:54;;;;;;;8.20;5.17;;;;;;;17.29;69.47;97757.34;8416745;28;20203;-63
2021/07/12 03:17:58;;;;;;;5.57;4.93;;;;;;;17.39;69.30;97758.31;8416733;28;20383;-63
2021/07/12 03:22:03;;;;;;;14.93;5.80;;;;;;;17.44;69.22;97760.59;8416329;28;20226;-63
2021/07/12 03:26:07;;;;;;;7.77;5.73;;;;;;;17.46;69.10;97761.31;8416451;28;20218;-63
2021/07/12 03:30:13;;;;;;;7.97;6.37;;;;;;;17.48;68.70;97754.19;8378360;28;1109790;-63
2021/07/12 03:34:17;;;;;;;7.87;6.30;;;;;;;17.39;69.04;97753.06;8417858;28;20218;-63
2021/07/12 03:38:21;;;;;;;16.40;6.10;;;;;;;17.49;68.62;97758.44;8417632;28;20199;-63
2021/07/12 03:42:25;;;;;;;6.13;5.43;;;;;;;17.39;68.86;97757.50;8417477;28;20343;-63
2021/07/12 03:46:29;;;;;;;6.57;5.97;;;;;;;17.42;68.42;97769.50;8417409;28;20206;-63
2021/07/12 03:50:32;;;;;;;7.03;6.10;;;;;;;17.45;68.14;97769.28;8417168;28;20203;-63
2021/07/12 03:54:35;;;;;;;5.80;5.30;;;;;;;17.50;67.94;97780.25;8417063;28;20206;-63
2021/07/12 03:58:38;;;;;;;6.37;5.63;;;;;;;17.37;68.07;97788.19;8415877;28;20494;-63
2021/07/12 04:02:42;;;;;;;5.20;4.60;;;;;;;17.27;67.72;97780.19;8416214;28;20206;-63
2021/07/12 04:06:45;;;;;;;6.60;4.77;;;;;;;16.91;69.81;97786.34;8416255;28;20218;-63
2021/07/12 04:10:48;;;;;;;5.93;5.27;;;;;;;16.78;69.80;97776.75;8416268;28;20203;-63
2021/07/12 04:14:51;;;;;;;6.63;6.03;;;;;;;16.83;69.75;97776.47;8416018;28;20271;-63
2021/07/12 04:18:55;;;;;;;9.33;5.53;;;;;;;16.88;69.87;97778.72;8415744;28;20238;-63
2021/07/12 04:22:59;;;;;;;7.80;5.80;;;;;;;16.85;69.69;97771.94;8415707;28;20497;-63
2021/07/12 04:27:02;;;;;;;7.30;6.60;;;;;;;16.95;70.00;97766.88;8415734;28;20509;-63
2021/07/12 04:31:05;;;;;;;12.67;7.13;;;;;;;16.74;70.52;97769.25;8415398;28;20243;-64
2021/07/12 04:35:11;;;;;;;14.27;8.73;;;;;;;16.90;70.77;97763.75;8415417;28;20490;-63
2021/07/12 04:39:14;;;;;;;38.47;7.40;;;;;;;16.80;70.65;97764.38;8415415;28;20227;-63
2021/07/12 04:43:17;;;;;;;71.93;8.27;;;;;;;16.74;70.53;97770.06;8415303;28;20199;-63
2021/07/12 04:47:20;;;;;;;149.97;9.20;;;;;;;16.89;70.42;97760.31;8415109;28;20207;-63
2021/07/12 04:51:24;;;;;;;53.90;6.57;;;;;;;16.77;70.88;97771.63;8415329;28;20203;-63
2021/07/12 04:55:27;;;;;;;60.13;8.17;;;;;;;16.74;70.89;97764.00;8398942;28;20202;-64
2021/07/12 04:59:37;;;;;;;146.53;8.00;;;;;;;16.71;70.61;97751.97;8395600;28;20365;-63
2021/07/12 05:03:42;;;;;;;99.73;7.73;;;;;;;16.66;70.70;97758.47;8397078;28;20192;-64
2021/07/12 05:07:46;;;;;;;149.97;9.00;;;;;;;16.38;72.34;97760.47;8391225;28;20285;-61
2021/07/12 05:11:49;;;;;;;33.57;7.77;;;;;;;16.65;72.15;97762.88;8415004;28;20203;-64
2021/07/12 05:15:52;;;;;;;118.20;8.80;;;;;;;17.06;69.71;97764.31;8414975;28;20372;-61
2021/07/12 05:19:55;;;;;;;14.83;6.20;;;;;;;16.99;70.45;97760.47;8414672;28;20233;-62
2021/07/12 05:23:59;;;;;;;85.07;7.40;;;;;;;16.73;71.38;97751.88;8414668;28;20199;-62
2021/07/12 05:28:02;;;;;;;33.67;8.07;;;;;;;16.65;71.82;97736.75;8400843;28;20227;-62
2021/07/12 05:32:05;;;;;;;26.20;7.03;;;;;;;16.73;71.79;97729.16;8404952;28;20444;-62
2021/07/12 05:36:08;;;;;;;18.33;7.80;;;;;;;16.80;71.47;97732.19;8381684;28;20394;-62
2021/07/12 05:40:13;;;;;;;92.47;8.30;;;;;;;16.89;70.85;97734.16;8381025;28;20227;-62
2021/07/12 05:44:16;;;;;;;21.47;7.37;;;;;;;16.87;71.73;97737.81;8381455;28;20200;-62
2021/07/12 05:48:19;;;;;;;34.17;6.90;;;;;;;16.89;70.94;97738.56;8381160;28;20200;-62
2021/07/12 05:52:21;;;;;;;9.93;6.77;;;;;;;16.86;71.93;97747.44;8381107;28;20211;-63
2021/07/12 05:56:25;;;;;;;35.00;7.33;;;;;;;17.18;70.99;97739.00;8381318;28;20200;-63
2021/07/12 06:00:28;;;;;;;22.77;7.20;;;;;;;16.88;72.18;97734.25;8380757;28;20235;-62
2021/07/12 06:04:31;;;;;;;10.97;5.60;;;;;;;16.77;71.65;97737.63;8381078;28;20200;-63
2021/07/12 06:08:34;;;;;;;11.53;5.30;;;;;;;16.59;72.95;97738.03;8380223;28;20416;-63
2021/07/12 06:12:38;;;;;;;9.10;6.17;;;;;;;16.96;71.61;97735.38;8380315;28;20250;-62
2021/07/12 06:16:41;;;;;;;6.53;6.00;;;;;;;17.27;71.16;97735.69;8380404;28;20206;-62
2021/07/12 06:20:48;;;;;;;6.47;5.80;;;;;;;17.29;70.99;97743.44;8380639;28;20278;-62
2021/07/12 06:24:51;;;;;;;24.37;6.97;;;;;;;17.17;70.74;97745.16;8386740;28;20207;-62
2021/07/12 06:28:55;;;;;;;7.77;6.97;;;;;;;17.39;70.77;97747.03;8386272;28;20239;-65
2021/07/12 06:32:58;;;;;;;7.50;6.63;;;;;;;17.23;71.61;97744.72;8386442;28;20608;-65
2021/07/12 06:37:01;;;;;;;8.67;6.70;;;;;;;17.10;71.37;97755.28;8385889;28;20287;-65
2021/07/12 06:41:04;;;;;;;7.63;6.80;;;;;;;17.42;70.36;97762.50;8390957;28;20222;-65
2021/07/12 06:45:09;;;;;;;6.33;5.83;;;;;;;17.59;69.80;97755.97;8388288;28;20298;-65
2021/07/12 06:49:12;;;;;;;6.87;5.77;;;;;;;17.64;69.21;97766.94;8385567;28;20252;-64
2021/07/12 06:53:14;;;;;;;7.53;6.83;;;;;;;17.95;69.53;97775.94;8385808;28;20203;-64
2021/07/12 06:57:17;;;;;;;8.50;7.70;;;;;;;17.94;68.97;97765.56;8385364;28;20495;-64
2021/07/12 07:01:22;;;;;;;9.60;8.73;;;;;;;17.96;68.73;97758.41;8385324;28;20291;-64
2021/07/12 07:05:26;;;;;;;8.37;7.57;;;;;;;17.82;69.84;97748.13;8385142;28;20220;-63
2021/07/12 07:09:29;;;;;;;10.77;7.83;;;;;;;18.23;68.71;97758.03;8407188;28;20202;-65
2021/07/12 07:13:32;;;;;;;9.03;7.73;;;;;;;18.16;68.97;97755.06;8418380;28;20215;-64
2021/07/12 07:17:37;;;;;;;9.70;8.90;;;;;;;17.90;70.24;97756.28;8418298;28;20205;-64
2021/07/12 07:21:39;;;;;;;8.33;7.10;;;;;;;18.43;69.14;97743.34;8417523;28;20223;-64
2021/07/12 07:25:42;;;;;;;8.47;7.77;;;;;;;18.65;68.55;97742.44;8417886;28;20229;-63
2021/07/12 07:29:46;;;;;;;9.13;8.33;;;;;;;18.88;68.03;97724.03;8417851;28;20242;-64
2021/07/12 07:33:50;;;;;;;10.63;9.73;;;;;;;19.11;66.54;97727.38;8413250;28;20517;-64
2021/07/12 07:37:53;;;;;;;10.30;9.33;;;;;;;19.18;66.69;97707.53;8399661;28;20192;-64
2021/07/12 07:41:58;;;;;;;9.87;7.77;;;;;;;19.37;66.80;97709.44;8399564;28;20507;-64
2021/07/12 07:46:01;;;;;;;7.80;7.10;;;;;;;20.21;64.71;97705.81;8399850;28;20204;-64
2021/07/12 07:50:08;;;;;;;6.50;6.00;;;;;;;19.93;64.68;97702.94;8408541;28;20200;-64
2021/07/12 07:54:11;;;;;;;6.27;5.77;;;;;;;20.39;63.72;97696.28;8411398;28;20485;-65
2021/07/12 07:58:17;;;;;;;5.87;5.27;;;;;;;20.64;62.95;97692.31;8401826;28;20191;-65
2021/07/12 08:02:20;;;;;;;5.30;4.90;;;;;;;21.52;61.24;97694.03;8399737;28;20229;-64
2021/07/12 08:06:26;;;;;;;5.23;4.70;;;;;;;21.71;60.07;97691.31;8399643;28;20501;-64
2021/07/12 08:10:30;;;;;;;8.77;5.03;;;;;;;21.18;61.32;97684.78;8383170;28;20198;-64
2021/07/12 08:14:33;;;;;;;5.70;4.90;;;;;;;21.06;62.40;97685.94;8383053;28;20203;-64
2021/07/12 08:18:36;;;;;;;5.60;4.90;;;;;;;21.60;59.69;97679.16;8382914;28;20192;-65
2021/07/12 08:22:40;;;;;;;4.30;3.90;;;;;;;22.13;58.28;97680.28;8382892;28;20225;-64
2021/07/12 08:26:43;;;;;;;7.00;4.23;;;;;;;22.44;57.45;97685.25;8383691;28;20517;-64
2021/07/12 08:30:47;;;;;;;4.33;3.93;;;;;;;22.44;57.39;97677.34;8383085;28;20234;-65
2021/07/12 08:34:50;;;;;;;3.07;2.73;;;;;;;23.12;57.17;97679.44;8383202;28;20487;-64
2021/07/12 08:38:58;;;;;;;5.53;3.80;;;;;;;22.80;56.29;97664.16;8383217;28;20270;-63
2021/07/12 08:43:01;;;;;;;3.40;3.10;;;;;;;23.38;55.87;97674.16;8382864;28;20399;-63
2021/07/12 08:47:06;;;;;;;4.13;3.30;;;;;;;23.34;54.36;97656.97;8382558;28;20199;-62
2021/07/12 08:51:09;;;;;;;5.00;3.07;;;;;;;23.37;52.94;97655.81;8382775;28;20210;-64
2021/07/12 08:55:14;;;;;;;4.07;2.90;;;;;;;23.28;54.00;97651.47;8383235;28;20502;-63
2021/07/12 08:59:26;;;;;;;4.37;3.00;;;;;;;23.89;52.80;97645.19;8383137;28;20214;-63
2021/07/12 09:03:31;;;;;;;3.13;2.57;;;;;;;23.74;51.92;97650.25;8383012;28;20533;-63
2021/07/12 09:07:34;;;;;;;3.93;2.73;;;;;;;23.79;52.42;97644.50;8382278;28;20519;-63
2021/07/12 09:11:39;;;;;;;3.23;2.50;;;;;;;24.52;51.05;97622.72;8382441;28;20212;-68
2021/07/12 09:15:42;;;;;;;4.03;2.03;;;;;;;24.84;50.05;97625.50;8382142;28;20207;-66
2021/07/12 09:19:45;;;;;;;2.23;2.03;;;;;;;24.72;51.13;97625.84;8382079;28;20207;-67
2021/07/12 09:23:48;;;;;;;2.93;2.10;;;;;;;24.10;52.89;97614.81;8381900;28;20228;-67
2021/07/12 09:27:57;;;;;;;6.23;2.20;;;;;;;23.20;54.96;97621.38;8381982;28;20203;-67
2021/07/12 09:32:00;;;;;;;4.70;2.70;;;;;;;24.07;50.70;97610.69;8382199;28;20212;-67
2021/07/12 09:36:16;;;;;;;2.83;1.90;;;;;;;24.28;48.40;97599.66;8382150;28;20206;-67
2021/07/12 09:40:19;;;;;;;4.03;2.10;;;;;;;24.58;49.03;97600.03;8382033;28;20303;-67
2021/07/12 09:44:25;;;;;;;2.37;2.10;;;;;;;24.68;48.13;97618.41;8381797;28;20223;-66
2021/07/12 09:48:28;;;;;;;3.13;2.00;;;;;;;25.11;48.25;97603.97;8381814;28;20485;-66
2021/07/12 09:52:38;;;;;;;3.20;2.23;;;;;;;25.29;47.89;97601.13;8381861;28;20212;-73
2021/07/12 09:56:41;;;;;;;5.77;2.30;;;;;;;25.34;47.51;97585.53;8383471;28;20212;-75
2021/07/12 10:01:00;;;;;;;3.07;2.10;;;;;;;25.67;47.06;97582.75;8387875;28;20199;-75
2021/07/12 10:05:05;;;;;;;2.60;2.03;;;;;;;25.78;46.24;97570.94;8387870;28;20207;-72
2021/07/12 10:09:08;;;;;;;4.10;2.17;;;;;;;25.87;46.72;97567.22;8387953;28;20209;-73
2021/07/12 10:13:11;;;;;;;3.33;1.90;;;;;;;25.52;47.05;97572.03;8387879;28;20219;-73
2021/07/12 10:17:16;;;;;;;2.77;1.70;;;;;;;25.86;48.03;97554.97;8387794;28;20370;-73
2021/07/12 10:21:19;;;;;;;2.70;2.00;;;;;;;26.10;46.17;97551.38;8387442;28;20231;-66
2021/07/12 10:25:22;;;;;;;3.37;1.97;;;;;;;25.60;46.50;97551.81;8387709;28;20202;-67
2021/07/12 10:29:29;;;;;;;2.90;1.90;;;;;;;25.55;45.65;97539.03;8387464;28;20234;-66
2021/07/12 10:33:33;;;;;;;2.00;1.70;;;;;;;26.15;44.24;97526.94;8387321;28;20207;-66
2021/07/12 10:37:41;;;;;;;3.00;1.73;;;;;;;25.59;46.52;97527.13;8386836;28;20381;-66
2021/07/12 10:41:48;;;;;;;2.37;1.77;;;;;;;25.21;47.57;97531.38;8386540;28;20241;-68
2021/07/12 10:45:51;;;;;;;1.70;1.60;;;;;;;25.22;47.63;97523.25;8386682;28;20381;-66
2021/07/12 10:49:56;;;;;;;3.27;1.70;;;;;;;24.46;48.59;97522.75;8414173;28;20209;-67
2021/07/12 10:54:02;;;;;;;3.10;1.60;;;;;;;25.63;45.32;97519.66;8419619;28;20205;-67
2021/07/12 10:58:43;;;;;;;2.70;1.80;;;;;;;25.84;44.99;97533.09;8419626;28;20208;-66
2021/07/12 11:02:46;;;;;;;3.57;1.40;;;;;;;26.36;45.37;97523.63;8419260;28;20226;-67
2021/07/12 11:06:56;;;;;;;1.87;1.40;;;;;;;26.18;43.07;97541.69;8418685;28;20221;-67
2021/07/12 11:10:58;;;;;;;1.43;1.33;;;;;;;26.41;44.08;97528.41;8418943;28;20202;-66
2021/07/12 11:15:29;;;;;;;2.10;1.40;;;;;;;27.36;42.02;97517.16;8418947;28;20217;-66
2021/07/12 11:19:32;;;;;;;2.47;1.40;;;;;;;27.04;42.80;97529.81;8418781;28;20247;-66
2021/07/12 11:23:55;;;;;;;3.33;1.33;;;;;;;27.67;41.14;97524.06;8418567;28;20225;-67
2021/07/12 11:28:08;;;;;;;1.60;1.20;;;;;;;27.38;39.78;97520.47;8414993;28;20420;-67
2021/07/12 11:32:15;;;;;;;1.40;1.30;;;;;;;27.40;41.01;97513.13;8416238;28;20396;-67
2021/07/12 11:36:20;;;;;;;1.87;1.37;;;;;;;26.95;38.87;97506.97;8410791;28;20218;-68
2021/07/12 11:40:24;;;;;;;2.53;1.63;;;;;;;27.49;39.65;97500.53;8416878;28;20364;-68
2021/07/12 11:44:26;;;;;;;1.63;1.50;;;;;;;27.72;40.49;97499.56;8416379;28;20220;-67
2021/07/12 11:48:29;;;;;;;4.13;1.60;;;;;;;26.53;41.44;97492.44;8415630;28;20525;-67
2021/07/12 11:52:33;;;;;;;1.93;1.70;;;;;;;27.11;40.96;97477.56;8416576;28;20233;-68
2021/07/12 11:56:37;;;;;;;1.90;1.70;;;;;;;27.92;42.47;97470.53;8414615;28;20200;-68
2021/07/12 12:00:42;;;;;;;1.50;1.40;;;;;;;27.45;40.07;97465.50;8416469;28;20204;-67
2021/07/12 12:04:51;;;;;;;2.13;1.67;;;;;;;28.01;39.34;97464.91;8406790;28;20257;-67
2021/07/12 12:09:01;;;;;;;2.20;1.60;;;;;;;28.08;39.78;97455.13;8397576;28;20202;-67
2021/07/12 12:13:14;;;;;;;2.33;1.63;;;;;;;27.76;40.05;97447.63;8399961;28;20392;-68
2021/07/12 12:17:17;;;;;;;1.83;1.60;;;;;;;28.05;38.73;97449.38;8399680;28;20347;-67
2021/07/12 12:21:20;;;;;;;1.70;1.30;;;;;;;27.07;40.14;97470.97;8398795;28;20203;-68
2021/07/12 12:25:23;;;;;;;4.53;1.80;;;;;;;26.70;41.38;97470.06;8399113;28;20227;-68
2021/07/12 12:29:28;;;;;;;2.23;1.67;;;;;;;26.25;42.39;97463.00;8398708;28;20233;-68
2021/07/12 12:33:34;;;;;;;1.50;1.33;;;;;;;26.85;41.53;97470.06;8399012;28;20221;-64
2021/07/12 12:37:39;;;;;;;1.40;1.30;;;;;;;27.65;38.87;97464.94;8400466;28;20193;-64
2021/07/12 12:41:46;;;;;;;1.67;1.40;;;;;;;27.76;39.99;97466.25;8414849;28;20519;-64
2021/07/12 12:45:52;;;;;;;1.97;1.20;;;;;;;27.61;37.81;97453.84;8412876;28;20392;-64
2021/07/12 12:49:55;;;;;;;4.23;1.20;;;;;;;27.34;39.11;97459.88;8414699;28;20223;-64
2021/07/12 12:54:10;;;;;;;2.27;1.20;;;;;;;27.33;38.17;97459.03;8414213;28;20219;-64
2021/07/12 12:58:13;;;;;;;5.30;1.40;;;;;;;27.54;37.12;97450.28;8413701;28;20203;-64
2021/07/12 13:02:20;;;;;;;1.73;1.40;;;;;;;27.35;37.96;97453.56;8414487;28;20235;-64
2021/07/12 13:06:23;;;;;;;10.10;2.00;;;;;;;27.48;37.24;97425.25;8412923;28;20218;-64
2021/07/12 13:10:27;;;;;;;4.07;1.30;;;;;;;27.37;38.36;97415.13;8414457;28;20393;-64
2021/07/12 13:14:30;;;;;;;1.30;1.20;;;;;;;27.41;38.97;97416.38;8414371;28;20212;-64
2021/07/12 13:18:34;;;;;;;1.30;1.13;;;;;;;27.22;38.94;97409.00;8414345;28;20510;-63
2021/07/12 13:22:39;;;;;;;1.40;1.00;;;;;;;27.43;39.21;97414.38;8410891;28;20518;-64
2021/07/12 13:26:42;;;;;;;2.37;1.40;;;;;;;27.57;37.48;97417.16;8412939;28;20196;-67
2021/07/12 13:30:48;;;;;;;6.10;1.30;;;;;;;27.49;37.36;97416.28;8415454;28;20554;-67
2021/07/12 13:34:53;;;;;;;3.40;1.20;;;;;;;27.91;37.33;97420.97;8419672;28;20213;-67
2021/07/12 13:38:56;;;;;;;1.93;1.20;;;;;;;27.54;37.58;97425.53;8406163;28;20481;-67
2021/07/12 13:43:02;;;;;;;2.20;1.20;;;;;;;27.38;37.29;97426.56;8404158;28;20240;-67
2021/07/12 13:47:05;;;;;;;3.77;1.30;;;;;;;27.20;38.74;97419.00;8390901;28;20381;-67
2021/07/12 13:51:10;;;;;;;1.37;1.23;;;;;;;27.61;37.58;97403.31;8387970;28;20204;-67
2021/07/12 13:55:14;;;;;;;1.30;1.13;;;;;;;28.01;38.18;97379.75;8388994;28;20480;-68
2021/07/12 13:59:17;;;;;;;1.47;1.20;;;;;;;27.61;37.45;97370.59;8397836;28;20497;-67
2021/07/12 14:03:19;;;;;;;1.23;1.10;;;;;;;28.10;37.68;97377.75;8401121;28;20233;-68
2021/07/12 14:07:24;;;;;;;2.53;1.40;;;;;;;27.68;38.47;97382.06;8396692;28;20556;-68
2021/07/12 14:11:26;;;;;;;4.20;1.10;;;;;;;27.73;38.69;97382.34;8391746;28;20202;-67
2021/07/12 14:15:29;;;;;;;1.63;1.10;;;;;;;28.16;37.99;97371.66;8404887;28;20267;-67
2021/07/12 14:19:48;;;;;;;1.63;1.27;;;;;;;27.65;37.68;97369.19;8420745;28;20491;-67
2021/07/12 14:23:53;;;;;;;4.97;1.67;;;;;;;27.60;38.13;97367.06;8420443;28;20542;-67
2021/07/12 14:27:55;;;;;;;2.53;1.47;;;;;;;27.48;39.23;97368.63;8397136;28;20243;-69
2021/07/12 14:31:58;;;;;;;3.97;1.30;;;;;;;27.79;38.19;97357.63;8392142;28;20193;-68
2021/07/12 14:36:01;;;;;;;1.67;1.20;;;;;;;27.95;37.81;97353.06;8396599;28;20538;-67
2021/07/12 14:40:07;;;;;;;1.30;1.20;;;;;;;28.14;38.81;97351.56;8392580;28;20196;-67
2021/07/12 14:44:09;;;;;;;4.93;1.30;;;;;;;27.88;37.42;97353.00;8403633;28;20393;-67
2021/07/12 14:48:12;;;;;;;1.33;1.20;;;;;;;27.62;36.81;97345.63;8405832;28;20202;-67
2021/07/12 14:52:15;;;;;;;3.13;1.60;;;;;;;27.57;37.46;97342.69;8395645;28;20397;-65
2021/07/12 14:56:19;;;;;;;5.67;2.10;;;;;;;27.69;38.26;97338.53;8398938;28;20209;-65
2021/07/12 15:00:22;;;;;;;2.10;1.20;;;;;;;27.67;37.19;97338.72;8404238;28;20198;-64
2021/07/12 15:04:25;;;;;;;3.10;1.33;;;;;;;27.45;37.77;97337.91;8401775;28;20506;-64
2021/07/12 15:08:28;;;;;;;2.83;0.97;;;;;;;27.27;37.89;97338.34;8411141;28;20422;-64
2021/07/12 15:12:33;;;;;;;2.93;1.17;;;;;;;27.03;38.52;97334.16;8406311;28;20198;-64
2021/07/12 15:16:36;;;;;;;1.50;1.40;;;;;;;27.21;37.46;97317.81;8386207;28;20204;-64
2021/07/12 15:20:39;;;;;;;1.73;1.27;;;;;;;27.63;39.18;97331.31;8385336;28;20212;-63
2021/07/12 15:24:41;;;;;;;3.33;0.93;;;;;;;27.25;37.54;97328.94;8385197;28;20521;-64
2021/07/12 15:28:47;;;;;;;2.17;1.43;;;;;;;27.11;37.67;97325.25;8384700;28;20300;-64
2021/07/12 15:32:50;;;;;;;3.27;1.27;;;;;;;27.17;37.26;97303.28;8385330;28;20210;-64
2021/07/12 15:36:55;;;;;;;1.00;1.00;;;;;;;27.02;37.25;97291.88;8384918;28;20202;-64
2021/07/12 15:40:57;;;;;;;1.77;1.00;;;;;;;27.24;37.22;97292.69;8400907;28;20213;-67
2021/07/12 15:45:02;;;;;;;2.53;1.10;;;;;;;27.35;39.22;97302.84;8399628;28;20328;-66
2021/07/12 15:49:04;;;;;;;2.23;1.60;;;;;;;27.27;37.98;97300.31;8398233;28;20198;-66
2021/07/12 15:53:08;;;;;;;2.50;1.00;;;;;;;27.16;37.50;97308.78;8396137;28;20211;-67
2021/07/12 15:57:13;;;;;;;2.77;1.30;;;;;;;26.88;38.82;97320.09;8394721;28;20514;-67
2021/07/12 16:01:19;;;;;;;2.33;1.40;;;;;;;26.88;39.32;97296.22;8401547;28;20199;-67
2021/07/12 16:05:22;;;;;;;1.37;1.03;;;;;;;26.90;39.17;97289.72;8394478;28;20229;-66
2021/07/12 16:09:25;;;;;;;1.30;0.97;;;;;;;26.65;38.33;97293.69;8398688;28;20242;-68
2021/07/12 16:13:28;;;;;;;1.87;1.13;;;;;;;26.88;38.45;97294.41;8402391;28;20290;-67
2021/07/12 16:17:32;;;;;;;1.23;1.07;;;;;;;26.75;37.95;97290.75;8416587;28;20203;-67
2021/07/12 16:21:35;;;;;;;1.57;1.00;;;;;;;26.87;38.27;97291.91;8413913;28;20201;-67
2021/07/12 16:25:41;;;;;;;2.83;1.20;;;;;;;26.75;38.33;97283.63;8416112;28;20232;-67
2021/07/12 16:29:44;;;;;;;1.10;0.90;;;;;;;26.56;39.65;97276.19;8416107;28;20417;-67
2021/07/12 16:33:48;;;;;;;1.67;1.20;;;;;;;26.55;38.92;97271.91;8416062;28;20456;-67
2021/07/12 16:37:51;;;;;;;1.10;1.00;;;;;;;26.71;39.67;97267.25;8415612;28;20199;-68
2021/07/12 16:41:54;;;;;;;1.87;1.30;;;;;;;26.59;39.48;97268.72;8415692;28;20199;-67
2021/07/12 16:45:56;;;;;;;2.33;1.33;;;;;;;26.50;39.12;97273.28;8416007;28;20232;-67
2021/07/12 16:50:00;;;;;;;1.23;1.10;;;;;;;26.52;39.05;97263.31;8415208;28;20342;-68
2021/07/12 16:54:04;;;;;;;1.10;1.00;;;;;;;26.45;39.45;97256.28;8415118;28;20214;-68
2021/07/12 16:58:07;;;;;;;2.13;1.13;;;;;;;26.10;40.15;97256.88;8404847;28;20203;-68
2021/07/12 17:02:12;;;;;;;1.07;0.97;;;;;;;26.09;40.18;97254.41;8395342;28;20375;-66
2021/07/12 17:06:16;;;;;;;1.80;1.03;;;;;;;26.08;40.21;97263.34;8381379;28;20241;-69
2021/07/12 17:10:19;;;;;;;1.67;1.30;;;;;;;26.03;41.58;97265.75;8381613;28;20502;-66
2021/07/12 17:14:24;;;;;;;4.77;1.30;;;;;;;26.09;40.41;97268.47;8381567;28;20396;-67
2021/07/12 17:18:27;;;;;;;2.30;1.20;;;;;;;25.84;40.68;97264.44;8381582;28;20199;-67
2021/07/12 17:22:32;;;;;;;1.20;1.10;;;;;;;25.85;40.83;97271.34;8381304;28;20230;-66
2021/07/12 17:26:35;;;;;;;2.07;1.10;;;;;;;25.80;40.80;97269.25;8380699;28;20230;-66
2021/07/12 17:30:38;;;;;;;1.10;1.00;;;;;;;25.80;41.00;97269.25;8380668;28;20245;-64
2021/07/12 17:34:40;;;;;;;1.73;1.10;;;;;;;25.75;41.90;97268.97;8381114;28;20215;-65
2021/07/12 17:38:45;;;;;;;1.63;1.10;;;;;;;25.64;41.64;97275.53;8381243;28;20201;-65
2021/07/12 17:42:48;;;;;;;3.10;1.20;;;;;;;25.53;42.21;97279.47;8381480;28;20378;-71
2021/07/12 17:46:51;;;;;;;1.53;1.20;;;;;;;25.52;42.59;97282.28;8381582;28;20524;-65
2021/07/12 17:50:54;;;;;;;2.17;1.10;;;;;;;25.56;42.36;97281.72;8381254;28;20380;-65
2021/07/12 17:54:59;;;;;;;3.33;1.40;;;;;;;25.55;42.49;97285.41;8381150;28;20407;-65
2021/07/12 17:59:05;;;;;;;2.13;1.60;;;;;;;25.42;42.84;97279.88;8381037;28;20206;-66
2021/07/12 18:03:08;;;;;;;2.63;1.57;;;;;;;25.55;43.44;97274.81;8381032;28;20200;-65
2021/07/12 18:07:11;;;;;;;1.97;1.47;;;;;;;25.51;46.26;97273.53;8380845;28;20512;-65
2021/07/12 18:11:15;;;;;;;2.40;1.50;;;;;;;25.44;47.46;97266.47;8381035;28;20295;-65
2021/07/12 18:15:18;;;;;;;1.57;1.37;;;;;;;25.31;47.94;97269.72;8385888;28;20197;-65
2021/07/12 18:19:21;;;;;;;1.80;1.30;;;;;;;25.28;47.90;97273.53;8400423;28;20483;-65
2021/07/12 18:23:24;;;;;;;1.60;1.20;;;;;;;25.20;49.01;97270.09;8405438;28;20193;-65
2021/07/12 18:27:28;;;;;;;3.77;1.77;;;;;;;25.10;49.06;97278.28;8382349;28;20245;-69
2021/07/12 18:31:31;;;;;;;4.07;2.50;;;;;;;25.05;49.47;97272.69;8382475;28;20251;-66
2021/07/12 18:35:34;;;;;;;1.77;1.40;;;;;;;24.94;48.78;97256.22;8397425;28;20202;-65
2021/07/12 18:39:37;;;;;;;4.27;1.50;;;;;;;24.84;48.98;97257.44;8403302;28;20208;-67
2021/07/12 18:43:42;;;;;;;2.03;1.43;;;;;;;24.81;48.87;97260.44;8410061;28;20367;-65
2021/07/12 18:47:45;;;;;;;4.40;1.30;;;;;;;24.71;49.96;97245.63;8386343;28;20272;-64
2021/07/12 18:51:48;;;;;;;4.57;1.90;;;;;;;24.61;50.32;97239.69;8385722;28;20208;-65
2021/07/12 18:55:52;;;;;;;9.40;1.50;;;;;;;24.55;49.85;97243.06;8385664;28;20403;-65
2021/07/12 18:59:56;;;;;;;2.33;1.60;;;;;;;24.44;50.76;97244.22;8399003;28;20192;-64
2021/07/12 19:03:59;;;;;;;3.20;2.07;;;;;;;24.37;50.34;97253.88;8384643;28;20207;-65
2021/07/12 19:08:02;;;;;;;2.47;1.47;;;;;;;24.36;50.43;97266.25;8384938;28;20218;-64